createdAt,value
2022-10-29T00:01:12.836Z,11.00
2022-10-29T00:03:41.205Z,10.51
2022-10-29T00:06:12.132Z,10.87
2022-10-29T00:08:41.479Z,10.56
2022-10-29T00:11:18.686Z,10.83
2022-10-29T00:13:49.509Z,10.26
2022-10-29T00:16:21.226Z,10.53
2022-10-29T00:18:50.606Z,10.71
2022-10-29T00:21:25.440Z,10.67
2022-10-29T00:23:53.963Z,10.71
2022-10-29T00:26:23.185Z,10.50
2022-10-29T00:28:56.479Z,10.67
2022-10-29T00:31:25.260Z,10.36
2022-10-29T00:33:55.708Z,10.60
2022-10-29T00:36:28.540Z,10.66
2022-10-29T00:38:57.476Z,10.58
2022-10-29T00:41:29.826Z,10.56
2022-10-29T00:44:15.673Z,10.64
2022-10-29T00:47:09.473Z,10.25
2022-10-29T00:49:39.467Z,10.51
2022-10-29T00:52:09.321Z,10.64
2022-10-29T00:54:41.517Z,10.51
2022-10-29T00:57:14.893Z,10.58
2022-10-29T00:59:43.779Z,10.50
2022-10-29T01:02:12.098Z,10.53
2022-10-29T01:04:41.722Z,10.64
2022-10-29T01:07:09.883Z,10.59
2022-10-29T01:09:38.173Z,10.67
2022-10-29T01:12:38.403Z,10.70
2022-10-29T01:15:29.927Z,10.66
2022-10-29T01:18:20.004Z,10.63
2022-10-29T01:21:12.824Z,10.56
2022-10-29T01:24:01.920Z,10.59
2022-10-29T01:27:00.639Z,10.67
2022-10-29T01:29:49.393Z,10.66
2022-10-29T01:32:54.828Z,10.69
2022-10-29T01:36:14.046Z,10.68
2022-10-29T01:39:10.533Z,10.70
2022-10-29T01:41:54.788Z,10.68
2022-10-29T01:45:10.072Z,10.33
2022-10-29T01:47:46.045Z,10.66
2022-10-29T01:50:20.590Z,10.56
2022-10-29T01:52:50.455Z,10.64
2022-10-29T01:55:30.114Z,10.57
2022-10-29T01:57:58.662Z,10.55
2022-10-29T02:00:27.598Z,10.27
2022-10-29T02:03:12.311Z,10.44
2022-10-29T02:05:54.845Z,10.29
2022-10-29T02:08:56.475Z,10.03
2022-10-29T02:12:03.256Z,10.20
2022-10-29T02:14:40.220Z,9.91
2022-10-29T02:17:10.847Z,10.28
2022-10-29T02:19:39.068Z,10.24
2022-10-29T02:22:07.100Z,10.29
2022-10-29T02:24:35.277Z,10.40
2022-10-29T02:27:03.196Z,10.45
2022-10-29T02:29:31.267Z,10.40
2022-10-29T02:31:59.360Z,10.11
2022-10-29T02:34:29.898Z,10.35
2022-10-29T02:36:58.219Z,10.39
2022-10-29T02:39:26.232Z,10.39
2022-10-29T02:41:54.633Z,10.40
2022-10-29T02:44:22.622Z,10.49
2022-10-29T02:46:50.904Z,10.59
2022-10-29T02:49:19.585Z,10.61
2022-10-29T02:51:47.607Z,10.65
2022-10-29T02:54:15.715Z,10.71
2022-10-29T02:56:43.603Z,10.19
2022-10-29T02:59:12.013Z,10.75
2022-10-29T03:01:40.542Z,10.75
2022-10-29T03:04:10.310Z,10.51
2022-10-29T03:06:38.759Z,10.76
2022-10-29T03:09:06.874Z,10.50
2022-10-29T03:11:34.749Z,10.78
2022-10-29T03:14:02.672Z,10.71
2022-10-29T03:16:30.631Z,10.71
2022-10-29T03:18:58.603Z,10.70
2022-10-29T03:21:26.674Z,10.17
2022-10-29T03:23:55.059Z,10.47
2022-10-29T03:26:23.309Z,10.38
2022-10-29T03:28:51.369Z,10.62
2022-10-29T03:31:19.374Z,10.58
2022-10-29T03:33:47.348Z,10.58
2022-10-29T03:36:15.445Z,10.26
2022-10-29T03:38:43.690Z,10.48
2022-10-29T03:41:11.665Z,10.51
2022-10-29T03:43:40.364Z,10.48
2022-10-29T03:46:10.123Z,10.53
2022-10-29T03:48:38.037Z,10.49
2022-10-29T03:51:07.504Z,10.43
2022-10-29T03:53:37.299Z,10.42
2022-10-29T03:56:05.929Z,10.28
2022-10-29T03:58:34.184Z,10.29
2022-10-29T04:01:10.456Z,10.29
2022-10-29T04:03:42.595Z,10.31
2022-10-29T04:06:14.964Z,10.27
2022-10-29T04:08:43.244Z,10.25
2022-10-29T04:11:14.646Z,9.78
2022-10-29T04:13:42.594Z,10.28
2022-10-29T04:16:10.521Z,10.15
2022-10-29T04:18:38.571Z,10.29
2022-10-29T04:26:42.181Z,10.17
2022-10-29T04:29:32.199Z,10.13
2022-10-29T04:32:00.109Z,10.13
2022-10-29T04:34:27.966Z,9.88
2022-10-29T04:36:56.115Z,10.10
2022-10-29T04:39:24.233Z,10.20
2022-10-29T04:41:52.032Z,9.90
2022-10-29T04:44:20.405Z,10.09
2022-10-29T04:46:48.404Z,10.23
2022-10-29T04:49:16.421Z,10.24
2022-10-29T04:51:44.497Z,10.31
2022-10-29T04:54:12.348Z,10.05
2022-10-29T04:56:40.210Z,10.31
2022-10-29T04:59:08.601Z,10.31
2022-10-29T05:04:09.752Z,10.09
2022-10-29T05:06:37.786Z,9.97
2022-10-29T05:09:05.752Z,10.14
2022-10-29T05:11:33.882Z,10.12
2022-10-29T05:14:01.765Z,10.49
2022-10-29T05:16:29.662Z,10.20
2022-10-29T05:18:57.710Z,10.49
2022-10-29T05:21:25.573Z,10.48
2022-10-29T05:23:53.440Z,10.58
2022-10-29T05:26:21.763Z,10.56
2022-10-29T05:28:51.615Z,10.64
2022-10-29T05:31:19.783Z,10.50
2022-10-29T05:33:49.935Z,10.52
2022-10-29T05:36:20.316Z,10.78
2022-10-29T05:38:49.969Z,10.83
2022-10-29T05:41:18.111Z,10.82
2022-10-29T05:43:50.675Z,10.70
2022-10-29T05:46:18.584Z,10.99
2022-10-29T05:48:47.493Z,10.99
2022-10-29T05:51:15.861Z,10.71
2022-10-29T05:53:44.845Z,10.87
2022-10-29T05:56:12.889Z,10.89
2022-10-29T05:58:41.369Z,11.19
2022-10-29T06:01:11.071Z,11.24
2022-10-29T06:03:39.553Z,11.01
2022-10-29T06:06:08.737Z,11.26
2022-10-29T06:08:36.864Z,11.33
2022-10-29T06:11:05.369Z,11.40
2022-10-29T06:13:33.561Z,11.45
2022-10-29T06:16:03.112Z,11.49
2022-10-29T06:18:31.290Z,11.56
2022-10-29T06:21:01.138Z,11.60
2022-10-29T06:23:29.506Z,11.40
2022-10-29T06:26:01.330Z,11.64
2022-10-29T06:28:34.540Z,11.28
2022-10-29T06:31:03.501Z,11.85
2022-10-29T06:33:32.009Z,11.71
2022-10-29T06:36:02.018Z,11.90
2022-10-29T06:38:32.534Z,11.93
2022-10-29T06:41:01.741Z,11.97
2022-10-29T06:43:30.377Z,12.02
2022-10-29T06:46:01.394Z,12.11
2022-10-29T06:48:29.292Z,12.16
2022-10-29T06:51:02.526Z,12.10
2022-10-29T06:53:32.498Z,12.21
2022-10-29T06:56:00.730Z,12.14
2022-10-29T06:58:28.706Z,12.24
2022-10-29T07:03:25.909Z,12.17
2022-10-29T07:05:59.141Z,12.23
2022-10-29T07:08:29.085Z,12.15
2022-10-29T07:10:57.395Z,12.23
2022-10-29T07:13:25.482Z,12.40
2022-10-29T07:15:53.935Z,12.38
2022-10-29T07:18:22.716Z,12.55
2022-10-29T07:20:50.934Z,12.39
2022-10-29T07:23:19.174Z,12.66
2022-10-29T07:25:47.068Z,12.73
2022-10-29T07:28:21.947Z,12.69
2022-10-29T07:30:50.940Z,12.73
2022-10-29T07:33:19.764Z,12.75
2022-10-29T07:35:48.324Z,12.73
2022-10-29T07:38:18.833Z,12.53
2022-10-29T07:40:50.224Z,12.73
2022-10-29T07:43:20.309Z,12.64
2022-10-29T07:45:50.913Z,12.77
2022-10-29T07:48:20.948Z,12.88
2022-10-29T07:50:49.380Z,12.70
2022-10-29T07:53:18.866Z,13.05
2022-10-29T07:55:56.650Z,13.36
2022-10-29T07:58:26.474Z,13.53
2022-10-29T08:00:55.346Z,13.78
2022-10-29T08:03:23.563Z,13.85
2022-10-29T08:05:56.363Z,13.67
2022-10-29T08:08:26.459Z,13.76
2022-10-29T08:11:04.575Z,14.07
2022-10-29T08:13:33.711Z,14.43
2022-10-29T08:16:01.679Z,14.45
2022-10-29T08:18:29.620Z,14.35
2022-10-29T08:20:58.211Z,14.17
2022-10-29T08:23:26.181Z,13.80
2022-10-29T08:25:54.150Z,14.30
2022-10-29T08:28:25.643Z,14.50
2022-10-29T08:30:54.059Z,14.65
2022-10-29T08:33:22.643Z,14.81
2022-10-29T08:35:52.836Z,14.95
2022-10-29T08:38:24.525Z,14.86
2022-10-29T08:41:11.445Z,15.20
2022-10-29T08:44:10.775Z,15.46
2022-10-29T08:46:54.241Z,15.45
2022-10-29T08:49:51.047Z,15.75
2022-10-29T08:52:28.951Z,15.70
2022-10-29T08:55:22.920Z,16.15
2022-10-29T08:58:00.001Z,16.30
2022-10-29T09:00:35.230Z,16.46
2022-10-29T09:03:09.582Z,16.55
2022-10-29T09:05:51.149Z,16.41
2022-10-29T09:08:46.066Z,16.49
2022-10-29T09:11:59.463Z,16.39
2022-10-29T09:14:33.478Z,16.01
2022-10-29T09:17:20.256Z,16.36
2022-10-29T09:20:19.074Z,16.48
2022-10-29T09:23:32.118Z,16.59
2022-10-29T09:26:04.780Z,16.64
2022-10-29T09:29:06.859Z,16.83
2022-10-29T09:31:42.706Z,16.87
2022-10-29T09:34:22.653Z,17.19
2022-10-29T09:36:52.139Z,17.34
2022-10-29T09:39:42.348Z,17.44
2022-10-29T09:42:26.146Z,17.13
2022-10-29T09:44:58.655Z,17.00
2022-10-29T09:48:02.666Z,17.41
2022-10-29T09:50:54.676Z,17.16
2022-10-29T09:53:24.575Z,17.51
2022-10-29T09:55:55.808Z,17.64
2022-10-29T09:58:27.012Z,17.26
2022-10-29T10:00:57.472Z,17.87
2022-10-29T10:03:44.111Z,17.61
2022-10-29T10:06:16.489Z,17.71
2022-10-29T10:09:01.033Z,17.85
2022-10-29T10:11:43.205Z,17.69
2022-10-29T10:14:31.706Z,17.86
2022-10-29T10:17:01.910Z,18.00
2022-10-29T10:19:32.617Z,18.25
2022-10-29T10:22:04.060Z,18.29
2022-10-29T10:24:35.837Z,18.26
2022-10-29T10:27:18.892Z,18.53
2022-10-29T10:30:05.366Z,18.51
2022-10-29T10:32:33.617Z,18.46
2022-10-29T10:35:01.513Z,18.49
2022-10-29T10:37:33.756Z,18.46
2022-10-29T10:40:05.726Z,18.61
2022-10-29T10:42:39.715Z,18.18
2022-10-29T10:45:26.061Z,18.89
2022-10-29T10:48:03.036Z,18.89
2022-10-29T10:50:34.724Z,18.30
2022-10-29T10:53:17.669Z,18.07
2022-10-29T10:55:53.356Z,18.09
2022-10-29T10:58:40.460Z,18.03
2022-10-29T11:01:30.625Z,18.01
2022-10-29T11:04:36.193Z,18.14
2022-10-29T11:07:11.364Z,18.36
2022-10-29T11:09:49.272Z,18.62
2022-10-29T11:12:40.555Z,18.63
2022-10-29T11:15:25.417Z,18.76
2022-10-29T11:18:05.376Z,18.64
2022-10-29T11:20:37.300Z,18.37
2022-10-29T11:23:17.295Z,18.54
2022-10-29T11:25:56.597Z,18.72
2022-10-29T11:29:05.192Z,18.96
2022-10-29T11:32:16.956Z,18.82
2022-10-29T11:34:59.667Z,18.75
2022-10-29T11:37:53.012Z,18.71
2022-10-29T11:40:39.174Z,18.70
2022-10-29T11:43:15.304Z,18.52
2022-10-29T11:46:19.078Z,18.45
2022-10-29T11:49:37.603Z,18.45
2022-10-29T11:52:59.341Z,18.39
2022-10-29T11:56:04.093Z,18.46
2022-10-29T11:58:50.905Z,18.56
2022-10-29T12:01:40.847Z,18.33
2022-10-29T12:04:24.724Z,18.47
2022-10-29T12:07:15.476Z,18.95
2022-10-29T12:09:54.567Z,18.99
2022-10-29T12:13:29.501Z,19.08
2022-10-29T12:16:25.932Z,18.85
2022-10-29T12:19:36.869Z,18.62
2022-10-29T12:22:32.738Z,18.38
2022-10-29T12:25:24.765Z,18.19
2022-10-29T12:28:27.616Z,18.17
2022-10-29T12:30:58.465Z,18.14
2022-10-29T12:34:17.540Z,18.28
2022-10-29T12:37:15.159Z,18.65
2022-10-29T12:39:53.311Z,18.62
2022-10-29T12:42:31.863Z,18.91
2022-10-29T12:46:18.921Z,18.96
2022-10-29T12:48:58.620Z,19.17
2022-10-29T12:51:48.487Z,19.29
2022-10-29T12:54:47.731Z,19.45
2022-10-29T12:57:15.658Z,19.51
2022-10-29T12:59:45.757Z,19.43
2022-10-29T13:02:38.065Z,19.24
2022-10-29T13:05:09.925Z,19.34
2022-10-29T13:07:45.240Z,19.20
2022-10-29T13:10:22.664Z,19.19
2022-10-29T13:13:05.783Z,19.09
2022-10-29T13:15:43.401Z,19.15
2022-10-29T13:18:41.235Z,18.93
2022-10-29T13:21:09.876Z,19.21
2022-10-29T13:23:40.671Z,18.77
2022-10-29T13:26:10.166Z,19.13
2022-10-29T13:28:37.941Z,19.25
2022-10-29T13:31:08.625Z,19.37
2022-10-29T13:33:36.631Z,19.15
2022-10-29T13:36:10.126Z,19.25
2022-10-29T13:39:04.923Z,19.25
2022-10-29T13:41:49.097Z,19.22
2022-10-29T13:44:23.190Z,19.21
2022-10-29T13:47:05.210Z,19.29
2022-10-29T13:49:47.433Z,19.24
2022-10-29T13:52:19.361Z,19.27
2022-10-29T13:55:00.338Z,19.25
2022-10-29T13:58:13.743Z,18.90
2022-10-29T14:00:44.579Z,18.83
2022-10-29T14:03:29.914Z,18.92
2022-10-29T14:06:09.150Z,18.89
2022-10-29T14:09:22.781Z,18.47
2022-10-29T14:12:02.531Z,18.51
2022-10-29T14:14:35.278Z,18.21
2022-10-29T14:17:15.696Z,18.38
2022-10-29T14:19:51.545Z,18.17
2022-10-29T14:22:36.578Z,18.36
2022-10-29T14:25:27.265Z,18.27
2022-10-29T14:28:33.436Z,18.33
2022-10-29T14:31:05.759Z,18.23
2022-10-29T14:33:53.349Z,18.12
2022-10-29T14:36:38.416Z,18.08
2022-10-29T14:39:37.084Z,17.96
2022-10-29T14:42:28.401Z,17.70
2022-10-29T14:45:00.061Z,17.81
2022-10-29T14:47:35.685Z,17.61
2022-10-29T14:50:15.382Z,17.60
2022-10-29T14:52:53.348Z,17.42
2022-10-29T14:55:37.465Z,17.47
2022-10-29T14:58:20.748Z,17.41
2022-10-29T15:01:02.181Z,17.31
2022-10-29T15:03:33.379Z,17.22
2022-10-29T15:06:20.432Z,16.91
2022-10-29T15:09:20.559Z,16.66
2022-10-29T15:12:01.909Z,16.74
2022-10-29T15:14:37.889Z,16.88
2022-10-29T15:17:29.241Z,16.77
2022-10-29T15:20:06.930Z,16.67
2022-10-29T15:22:38.631Z,16.39
2022-10-29T15:25:18.529Z,15.90
2022-10-29T15:27:46.776Z,16.45
2022-10-29T15:30:31.700Z,16.27
2022-10-29T15:33:13.695Z,16.32
2022-10-29T15:35:54.572Z,16.26
2022-10-29T15:38:32.878Z,16.24
2022-10-29T15:41:12.787Z,16.21
2022-10-29T15:43:56.280Z,16.06
2022-10-29T15:46:49.007Z,15.84
2022-10-29T15:49:17.348Z,15.73
2022-10-29T15:51:45.847Z,15.76
2022-10-29T15:54:14.509Z,15.92
2022-10-29T15:56:42.901Z,15.88
2022-10-29T15:59:18.657Z,15.82
2022-10-29T16:01:46.972Z,15.71
2022-10-29T16:04:14.901Z,15.62
2022-10-29T16:06:42.894Z,15.50
2022-10-29T16:09:18.822Z,15.41
2022-10-29T16:11:47.018Z,15.00
2022-10-29T16:14:15.130Z,15.07
2022-10-29T16:16:43.189Z,14.93
2022-10-29T16:19:11.147Z,14.84
2022-10-29T16:21:40.307Z,14.62
2022-10-29T16:24:15.890Z,14.72
2022-10-29T16:26:44.195Z,14.72
2022-10-29T16:29:12.099Z,14.42
2022-10-29T16:31:42.549Z,14.12
2022-10-29T16:34:13.803Z,14.32
2022-10-29T16:36:41.870Z,14.39
2022-10-29T16:39:09.857Z,14.32
2022-10-29T16:41:37.855Z,14.22
2022-10-29T16:44:05.770Z,13.97
2022-10-29T16:46:33.787Z,14.01
2022-10-29T16:49:01.984Z,14.02
2022-10-29T16:51:29.929Z,13.78
2022-10-29T16:53:59.581Z,13.91
2022-10-29T16:56:27.526Z,13.81
2022-10-29T16:59:01.706Z,13.86
2022-10-29T17:01:30.531Z,13.90
2022-10-29T17:03:59.736Z,13.93
2022-10-29T17:06:27.810Z,13.90
2022-10-29T17:08:56.001Z,13.90
2022-10-29T17:11:24.007Z,13.86
2022-10-29T17:13:52.379Z,13.40
2022-10-29T17:16:20.719Z,13.82
2022-10-29T17:18:50.849Z,13.73
2022-10-29T17:21:18.921Z,13.55
2022-10-29T17:23:48.787Z,13.66
2022-10-29T17:26:18.815Z,13.57
2022-10-29T17:28:47.084Z,13.40
2022-10-29T17:31:15.074Z,13.27
2022-10-29T17:33:42.989Z,13.12
2022-10-29T17:36:15.926Z,13.42
2022-10-29T17:38:44.190Z,13.41
2022-10-29T17:41:12.754Z,13.28
2022-10-29T17:43:41.137Z,13.41
2022-10-29T17:46:09.147Z,13.40
2022-10-29T17:48:37.137Z,13.31
2022-10-29T17:51:05.907Z,13.43
2022-10-29T17:53:34.091Z,13.52
2022-10-29T17:56:02.156Z,13.61
2022-10-29T17:58:31.327Z,13.68
2022-10-29T18:01:08.364Z,13.78
2022-10-29T18:03:38.017Z,13.76
2022-10-29T18:06:10.332Z,13.86
2022-10-29T18:08:40.778Z,14.00
2022-10-29T18:11:22.117Z,14.08
2022-10-29T18:13:51.093Z,14.04
2022-10-29T18:16:23.369Z,14.14
2022-10-29T18:19:01.635Z,14.15
2022-10-29T18:21:31.987Z,14.07
2022-10-29T18:24:00.243Z,14.02
2022-10-29T18:26:37.250Z,13.79
2022-10-29T18:29:12.248Z,13.86
2022-10-29T18:31:45.139Z,13.82
2022-10-29T18:34:15.455Z,13.78
2022-10-29T18:36:43.740Z,13.70
2022-10-29T18:39:12.460Z,13.83
2022-10-29T18:41:41.076Z,13.81
2022-10-29T18:44:09.182Z,13.71
2022-10-29T18:46:37.238Z,13.73
2022-10-29T18:49:05.536Z,13.78
2022-10-29T18:51:33.768Z,13.84
2022-10-29T18:54:01.871Z,13.86
2022-10-29T18:56:31.479Z,13.91
2022-10-29T18:59:00.449Z,13.69
2022-10-29T19:01:32.342Z,14.01
2022-10-29T19:04:08.613Z,14.03
2022-10-29T19:06:38.263Z,14.07
2022-10-29T19:09:09.536Z,13.91
2022-10-29T19:11:37.887Z,14.21
2022-10-29T19:14:12.227Z,13.98
2022-10-29T19:16:40.672Z,14.17
2022-10-29T19:19:16.044Z,14.10
2022-10-29T19:21:47.345Z,14.17
2022-10-29T19:24:16.676Z,14.18
2022-10-29T19:26:45.230Z,14.16
2022-10-29T19:29:14.199Z,14.17
2022-10-29T19:31:46.582Z,14.17
2022-10-29T19:34:17.347Z,14.12
2022-10-29T19:36:45.426Z,13.99
2022-10-29T19:39:16.510Z,13.95
2022-10-29T19:41:44.795Z,13.88
2022-10-29T19:44:14.959Z,13.87
2022-10-29T19:46:43.837Z,13.76
2022-10-29T19:49:11.964Z,13.83
2022-10-29T19:51:40.683Z,13.81
2022-10-29T19:54:08.817Z,13.76
2022-10-29T19:56:37.005Z,13.70
2022-10-29T19:59:05.708Z,13.61
2022-10-29T20:01:33.942Z,13.54
2022-10-29T20:04:02.297Z,13.42
2022-10-29T20:06:30.354Z,13.42
2022-10-29T20:09:00.597Z,13.44
2022-10-29T20:11:29.763Z,13.43
2022-10-29T20:13:57.967Z,13.35
2022-10-29T20:16:26.050Z,13.37
2022-10-29T20:18:55.190Z,13.35
2022-10-29T20:21:23.178Z,13.17
2022-10-29T20:23:52.692Z,13.02
2022-10-29T20:26:22.643Z,13.23
2022-10-29T20:28:50.668Z,13.06
2022-10-29T20:31:18.559Z,13.17
2022-10-29T20:33:56.011Z,13.16
2022-10-29T20:36:28.022Z,13.10
2022-10-29T20:38:57.964Z,13.12
2022-10-29T20:41:26.197Z,12.88
2022-10-29T20:44:01.531Z,12.97
2022-10-29T20:46:29.891Z,13.07
2022-10-29T20:48:58.030Z,12.94
2022-10-29T20:51:26.695Z,13.00
2022-10-29T20:53:55.164Z,12.90
2022-10-29T20:56:27.519Z,12.66
2022-10-29T20:58:55.597Z,12.87
2022-10-29T21:01:26.476Z,12.68
2022-10-29T21:03:54.686Z,12.75
2022-10-29T21:06:23.197Z,12.44
2022-10-29T21:08:52.581Z,12.52
2022-10-29T21:11:22.327Z,12.61
2022-10-29T21:13:50.953Z,12.58
2022-10-29T21:16:28.108Z,12.58
2022-10-29T21:18:59.527Z,12.74
2022-10-29T21:21:33.212Z,12.82
2022-10-29T21:24:01.127Z,12.90
2022-10-29T21:26:29.877Z,13.04
2022-10-29T21:28:58.550Z,13.19
2022-10-29T21:31:26.553Z,13.01
2022-10-29T21:33:56.305Z,13.31
2022-10-29T21:36:24.485Z,13.31
2022-10-29T21:38:58.407Z,13.30
2022-10-29T21:41:28.591Z,13.17
2022-10-29T21:43:56.562Z,13.13
2022-10-29T21:46:30.026Z,13.03
2022-10-29T21:49:00.798Z,12.64
2022-10-29T21:51:29.273Z,12.74
2022-10-29T21:53:59.288Z,12.68
2022-10-29T21:56:27.412Z,12.43
2022-10-29T21:58:55.540Z,12.57
2022-10-29T22:01:23.652Z,12.52
2022-10-29T22:03:51.916Z,12.46
2022-10-29T22:06:22.922Z,12.29
2022-10-29T22:08:59.848Z,12.13
2022-10-29T22:11:28.957Z,12.35
2022-10-29T22:13:58.139Z,12.40
2022-10-29T22:16:26.258Z,12.27
2022-10-29T22:18:54.269Z,12.28
2022-10-29T22:21:27.294Z,12.16
2022-10-29T22:24:00.288Z,12.36
2022-10-29T22:26:39.001Z,12.47
2022-10-29T22:29:07.490Z,12.56
2022-10-29T22:31:35.452Z,12.28
2022-10-29T22:34:03.467Z,12.65
2022-10-29T22:36:33.322Z,12.32
2022-10-29T22:39:01.746Z,12.45
2022-10-29T22:41:30.547Z,12.59
2022-10-29T22:43:59.304Z,12.61
2022-10-29T22:46:29.936Z,12.37
2022-10-29T22:48:58.256Z,12.63
2022-10-29T22:51:31.880Z,12.44
2022-10-29T22:54:00.054Z,12.63
2022-10-29T22:56:34.923Z,12.65
2022-10-29T22:59:04.237Z,12.47
2022-10-29T23:01:40.278Z,12.56
2022-10-29T23:04:12.088Z,12.61
2022-10-29T23:06:40.272Z,12.10
2022-10-29T23:09:08.596Z,12.42
2022-10-29T23:11:39.238Z,12.68
2022-10-29T23:14:09.005Z,12.73
2022-10-29T23:16:37.159Z,12.42
2022-10-29T23:19:06.750Z,12.80
2022-10-29T23:21:35.946Z,12.80
2022-10-29T23:24:04.047Z,12.57
2022-10-29T23:26:31.880Z,12.55
2022-10-29T23:28:59.843Z,12.67
2022-10-29T23:31:29.125Z,12.61
2022-10-29T23:33:58.757Z,12.54
2022-10-29T23:36:28.189Z,12.47
2022-10-29T23:39:01.576Z,12.38
2022-10-29T23:41:31.580Z,12.35
2022-10-29T23:43:59.943Z,12.27
2022-10-29T23:46:27.796Z,12.13
2022-10-29T23:48:56.028Z,12.26
2022-10-29T23:51:23.913Z,12.23
2022-10-29T23:53:54.855Z,12.13
2022-10-29T23:56:25.982Z,11.97
2022-10-29T23:58:54.169Z,11.95
